METAR Data
IDs: Format: Raw Decoded Include TAF

Data at: 1211 UTC 16 Feb 2019

METAR for:KJAX (Jacksonville Intl, FL, US)
Text:KJAX 161156Z 21006KT 10SM BKN180 14/12 A2985 RMK AO2 SLP109 T01440122 10150 20117 58002
Temperature: 14.4°C ( 58°F)
Dewpoint: 12.2°C ( 54°F) [RH = 87%]
Pressure (altimeter):29.85 inches Hg (1010.9 mb) [Sea level pressure: 1010.9 mb]
Winds:from the SSW (210 degrees) at 7 MPH (6 knots; 3.1 m/s)
Visibility:10 or more sm (16+ km)
Ceiling:18000 feet AGL
Clouds: broken clouds at 18000 feet AGL

METAR for:KCRG (Jacksonville/Executi, FL, US)
Text:KCRG 161153Z 21009KT 10SM CLR 15/13 A2987 RMK AO2 SLP114 T01500133 10150 20122 50000
Temperature: 15.0°C ( 59°F)
Dewpoint: 13.3°C ( 56°F) [RH = 90%]
Pressure (altimeter):29.87 inches Hg (1011.6 mb) [Sea level pressure: 1011.4 mb]
Winds:from the SSW (210 degrees) at 10 MPH (9 knots; 4.6 m/s)
Visibility:10 or more sm (16+ km)
Ceiling:at least 12,000 feet AGL
Clouds:sky clear below 12,000 feet AGL

METAR for:KNIP (Jacksonville (NAS), FL, US)
Text:KNIP 161153Z 21007KT 10SM BKN180 BKN250 15/13 A2988 RMK AO2 SLP113 T01500128 10167 20144 50000
Temperature: 15.0°C ( 59°F)
Dewpoint: 12.8°C ( 55°F) [RH = 87%]
Pressure (altimeter):29.88 inches Hg (1011.9 mb) [Sea level pressure: 1011.3 mb]
Winds:from the SSW (210 degrees) at 8 MPH (7 knots; 3.6 m/s)
Visibility:10 or more sm (16+ km)
Ceiling:18000 feet AGL
Clouds: broken clouds at 18000 feet AGL, broken clouds at 25000 feet AGL

METAR for:KNRB (Mayport (NS), FL, US)
Text:KNRB 161152Z AUTO 22007KT 10SM CLR 14/13 A2987 RMK AO2 SLP114 T01440128 10150 20122 52000
Temperature: 14.4°C ( 58°F)
Dewpoint: 12.8°C ( 55°F) [RH = 90%]
Pressure (altimeter):29.87 inches Hg (1011.6 mb) [Sea level pressure: 1011.4 mb]
Winds:from the SW (220 degrees) at 8 MPH (7 knots; 3.6 m/s)
Visibility:10 or more sm (16+ km)
Ceiling:at least 12,000 feet AGL
Clouds:sky clear below 12,000 feet AGL
QC Flag:automated observation with no human augmentation

METAR for:KFHB (Fernandina Beach Mun, FL, US)
Text:KFHB 161155Z AUTO 22009KT 10SM CLR 15/13 A2985 RMK AO2 T01500126 10150 20133
Temperature: 15.0°C ( 59°F)
Dewpoint: 12.6°C ( 55°F) [RH = 86%]
Pressure (altimeter):29.85 inches Hg (1010.9 mb)
Winds:from the SW (220 degrees) at 10 MPH (9 knots; 4.6 m/s)
Visibility:10 or more sm (16+ km)
Ceiling:at least 12,000 feet AGL
Clouds:sky clear below 12,000 feet AGL
QC Flag:automated observation with no human augmentation

METAR for:KVQQ (Jacksonville/Cecil A, FL, US)
Text:KVQQ 161150Z 21005KT 10SM CLR 14/13 A2987
Temperature: 14.0°C ( 57°F)
Dewpoint: 13.0°C ( 55°F) [RH = 94%]
Pressure (altimeter):29.87 inches Hg (1011.6 mb)
Winds:from the SSW (210 degrees) at 6 MPH (5 knots; 2.6 m/s)
Visibility:10 or more sm (16+ km)
Ceiling:at least 12,000 feet AGL
Clouds:sky clear below 12,000 feet AGL